Time;durP1;ratioP1;P1;durP2;ratioP2;P2;SDS_P1;SDS_P2;PMS_P1;PMS_P2;Temp;Humidity;BMP_temperature;BMP_pressure;BME280_temperature;BME280_humidity;BME280_pressure;Samples;Min_cycle;Max_cycle;Signal;HPM_P1;HPM_P2
2023/02/01 00:02:14;;;;;;;14.40;2.23;;;5.70;99.90;;;;;;5031032;28;20340;-60
2023/02/01 00:04:40;;;;;;;13.60;2.83;;;5.60;99.90;;;;;;5024496;28;20398;-60
2023/02/01 00:07:07;;;;;;;12.97;2.90;;;5.60;99.90;;;;;;5029446;28;20781;-60
2023/02/01 00:09:34;;;;;;;8.33;2.13;;;5.60;99.90;;;;;;5031855;28;20568;-60
2023/02/01 00:12:02;;;;;;;10.90;2.40;;;5.60;99.90;;;;;;5031639;28;20221;-59
2023/02/01 00:14:29;;;;;;;12.20;2.70;;;5.70;99.90;;;;;;5031756;28;20207;-61
2023/02/01 00:16:56;;;;;;;7.40;2.40;;;5.60;99.90;;;;;;5026099;28;20209;-61
2023/02/01 00:19:23;;;;;;;10.23;2.63;;;5.60;99.90;;;;;;5030725;28;20213;-61
2023/02/01 00:21:49;;;;;;;15.47;2.80;;;5.60;99.90;;;;;;5031663;28;20213;-60
2023/02/01 00:24:16;;;;;;;10.93;1.77;;;5.70;99.90;;;;;;5030988;28;20210;-64
2023/02/01 00:26:44;;;;;;;13.87;2.70;;;5.80;99.90;;;;;;5029841;28;20191;-61
2023/02/01 00:29:15;;;;;;;10.00;2.23;;;5.70;99.90;;;;;;5038016;28;20601;-60
2023/02/01 00:31:42;;;;;;;18.03;2.07;;;5.80;99.90;;;;;;5035421;28;20229;-60
2023/02/01 00:34:13;;;;;;;15.73;2.17;;;5.80;99.90;;;;;;5039519;28;20208;-60
2023/02/01 00:36:41;;;;;;;15.37;1.97;;;5.70;99.90;;;;;;5038444;28;20254;-61
2023/02/01 00:39:09;;;;;;;7.40;1.90;;;5.80;99.90;;;;;;5040360;28;20679;-61
2023/02/01 00:41:36;;;;;;;10.70;2.00;;;5.80;99.90;;;;;;5037385;28;20266;-61
2023/02/01 00:44:03;;;;;;;8.80;2.10;;;5.80;99.90;;;;;;5040504;28;20286;-60
2023/02/01 00:46:30;;;;;;;8.13;1.93;;;5.80;99.90;;;;;;5032617;28;20202;-60
2023/02/01 00:48:57;;;;;;;11.47;3.80;;;5.70;99.90;;;;;;5031198;28;20280;-60
2023/02/01 00:51:27;;;;;;;12.63;2.27;;;5.80;99.90;;;;;;5026254;28;20211;-62
2023/02/01 00:53:54;;;;;;;17.27;2.87;;;5.80;99.90;;;;;;5031767;28;20700;-61
2023/02/01 00:56:21;;;;;;;10.17;2.80;;;5.70;99.90;;;;;;5037954;28;20239;-60
2023/02/01 00:58:48;;;;;;;8.83;2.23;;;5.70;99.90;;;;;;5036838;28;20215;-61
2023/02/01 01:01:24;;;;;;;15.90;3.07;;;5.80;99.90;;;;;;5025624;28;20207;-59
2023/02/01 01:03:53;;;;;;;16.43;3.00;;;5.60;99.90;;;;;;5036315;28;20244;-60
2023/02/01 01:06:29;;;;;;;9.80;2.53;;;5.70;99.90;;;;;;5037381;28;20660;-60
2023/02/01 01:08:58;;;;;;;5.70;1.70;;;5.70;99.90;;;;;;5040894;28;20207;-60
2023/02/01 01:11:28;;;;;;;7.17;2.33;;;5.70;99.90;;;;;;5037214;28;20203;-60
2023/02/01 01:13:56;;;;;;;6.27;1.87;;;5.70;99.90;;;;;;5038564;28;20715;-62
2023/02/01 01:16:25;;;;;;;8.57;2.07;;;5.60;99.90;;;;;;5037923;28;20546;-61
2023/02/01 01:18:53;;;;;;;9.23;2.57;;;5.60;99.90;;;;;;5039103;28;20214;-62
2023/02/01 01:21:20;;;;;;;7.93;2.20;;;5.60;99.90;;;;;;5038423;28;20707;-61
2023/02/01 01:23:47;;;;;;;12.67;2.23;;;5.60;99.90;;;;;;5039699;28;20311;-61
2023/02/01 01:26:17;;;;;;;11.77;2.23;;;5.60;99.90;;;;;;5036493;28;20330;-61
2023/02/01 01:28:44;;;;;;;9.00;1.60;;;5.60;99.90;;;;;;5039691;28;20205;-61
2023/02/01 01:31:12;;;;;;;5.77;2.00;;;5.70;99.90;;;;;;5035742;28;20219;-61
2023/02/01 01:33:39;;;;;;;14.67;2.40;;;5.60;99.90;;;;;;5037505;28;20201;-60
2023/02/01 01:36:10;;;;;;;8.73;2.30;;;5.60;99.90;;;;;;5038012;28;20259;-60
2023/02/01 01:38:39;;;;;;;5.40;1.53;;;5.70;99.90;;;;;;5036857;28;20196;-60
2023/02/01 01:41:06;;;;;;;8.97;1.80;;;5.60;99.90;;;;;;5034696;28;20262;-59
2023/02/01 01:43:57;;;;;;;10.63;2.20;;;5.50;99.90;;;;;;5035020;28;20204;-62
2023/02/01 01:46:34;;;;;;;9.10;2.13;;;5.60;99.90;;;;;;5033417;28;20208;-63
2023/02/01 01:49:17;;;;;;;11.13;1.80;;;5.50;99.90;;;;;;5034625;28;20201;-62
2023/02/01 01:51:50;;;;;;;11.37;1.97;;;5.50;99.90;;;;;;5029814;28;20315;-60
2023/02/01 01:54:24;;;;;;;6.63;1.73;;;5.60;99.90;;;;;;5028485;28;20253;-61
2023/02/01 01:56:56;;;;;;;16.70;2.30;;;5.60;99.90;;;;;;5025532;28;20576;-62
2023/02/01 01:59:24;;;;;;;12.27;2.37;;;5.50;99.90;;;;;;5035221;28;20200;-59
2023/02/01 02:01:52;;;;;;;10.67;2.30;;;5.40;99.90;;;;;;5033438;28;20486;-62
2023/02/01 02:04:19;;;;;;;8.00;1.60;;;5.40;99.90;;;;;;5036515;28;20202;-62
2023/02/01 02:06:51;;;;;;;16.50;2.67;;;5.40;99.90;;;;;;5025539;28;20387;-62
2023/02/01 02:09:18;;;;;;;10.83;2.60;;;5.30;99.90;;;;;;5032385;28;20203;-62
2023/02/01 02:11:45;;;;;;;7.20;2.17;;;5.40;99.90;;;;;;5032918;28;20203;-59
2023/02/01 02:14:17;;;;;;;9.17;1.90;;;5.40;99.90;;;;;;5033259;28;20239;-62
2023/02/01 02:16:46;;;;;;;13.10;2.70;;;5.50;99.90;;;;;;5036535;28;20226;-60
2023/02/01 02:19:23;;;;;;;12.30;2.03;;;5.50;99.90;;;;;;5036620;28;20672;-60
2023/02/01 02:22:15;;;;;;;11.10;2.10;;;5.50;99.90;;;;;;5037195;28;20209;-60
2023/02/01 02:25:21;;;;;;;8.40;2.53;;;5.50;99.90;;;;;;5036851;28;20197;-60
2023/02/01 02:28:12;;;;;;;14.63;2.43;;;5.50;99.90;;;;;;5037265;28;20548;-60
2023/02/01 02:30:53;;;;;;;10.23;2.17;;;5.50;99.90;;;;;;5050563;28;20908;-62
2023/02/01 02:33:51;;;;;;;12.23;2.40;;;5.50;99.90;;;;;;5036230;28;20578;-61
2023/02/01 02:36:42;;;;;;;7.60;1.90;;;5.50;99.90;;;;;;5036676;28;20266;-60
2023/02/01 02:39:37;;;;;;;11.37;2.37;;;5.50;99.90;;;;;;5037969;28;20204;-60
2023/02/01 02:48:11;;;;;;;12.93;2.63;;;5.70;99.90;;;;;;5037204;28;20254;-60
2023/02/01 03:04:57;;;;;;;13.87;2.73;;;5.90;99.90;;;;;;5030989;28;20607;-60
2023/02/01 03:07:49;;;;;;;10.73;2.40;;;6.00;99.90;;;;;;5036997;28;20287;-61
2023/02/01 03:10:49;;;;;;;13.73;2.57;;;6.10;99.90;;;;;;5029585;28;20199;-60
2023/02/01 03:13:35;;;;;;;10.00;2.03;;;6.10;99.90;;;;;;5029781;28;20211;-60
2023/02/01 03:16:26;;;;;;;9.87;1.80;;;6.10;99.90;;;;;;5016817;28;20656;-60
2023/02/01 03:19:05;;;;;;;12.17;2.33;;;6.10;99.90;;;;;;5028002;28;20201;-61
2023/02/01 03:22:03;;;;;;;7.50;2.13;;;6.10;99.90;;;;;;5021041;28;20315;-61
2023/02/01 03:24:37;;;;;;;11.03;2.60;;;6.10;99.90;;;;;;5025602;28;20678;-60
2023/02/01 03:27:22;;;;;;;6.97;1.80;;;6.20;99.90;;;;;;5021783;28;20635;-60
2023/02/01 03:29:58;;;;;;;13.80;2.07;;;6.20;99.90;;;;;;5029384;28;20273;-61
2023/02/01 03:32:25;;;;;;;10.10;2.20;;;6.10;99.90;;;;;;5022932;28;20226;-61
2023/02/01 03:34:53;;;;;;;9.93;1.60;;;6.10;99.90;;;;;;5024131;28;20873;-61
2023/02/01 03:37:27;;;;;;;15.73;2.90;;;6.00;99.90;;;;;;5024035;28;20244;-60
2023/02/01 03:40:07;;;;;;;11.67;2.50;;;6.00;99.90;;;;;;5022072;28;20208;-60
2023/02/01 03:42:39;;;;;;;14.43;2.60;;;6.00;99.90;;;;;;5027197;28;20774;-62
2023/02/01 03:45:12;;;;;;;9.47;2.17;;;6.00;99.90;;;;;;5039814;28;20196;-61
2023/02/01 03:47:43;;;;;;;11.03;2.30;;;5.90;99.90;;;;;;5024256;28;20204;-61
2023/02/01 03:50:13;;;;;;;13.00;2.20;;;5.90;99.90;;;;;;5026397;28;20396;-60
2023/02/01 03:52:44;;;;;;;13.07;1.90;;;5.90;99.90;;;;;;5027238;28;20303;-60
2023/02/01 03:55:13;;;;;;;14.47;2.20;;;5.90;99.90;;;;;;5026937;28;20562;-61
2023/02/01 03:57:45;;;;;;;15.67;2.63;;;5.90;99.90;;;;;;5022707;28;20642;-61
2023/02/01 04:00:19;;;;;;;14.30;2.70;;;5.90;99.90;;;;;;5025329;28;20545;-60
2023/02/01 04:02:46;;;;;;;7.70;2.30;;;6.00;99.90;;;;;;5027576;28;20266;-60
2023/02/01 04:05:14;;;;;;;12.27;2.80;;;5.90;99.90;;;;;;5037816;28;20586;-61
2023/02/01 04:07:41;;;;;;;16.73;2.47;;;5.90;99.90;;;;;;5033855;28;20687;-60
2023/02/01 04:10:09;;;;;;;18.07;2.67;;;5.90;99.90;;;;;;5028767;28;20194;-60
2023/02/01 04:12:36;;;;;;;18.87;3.23;;;5.80;99.90;;;;;;5028740;28;20312;-60
2023/02/01 04:15:03;;;;;;;16.80;2.77;;;5.80;99.90;;;;;;5016218;28;20215;-60
2023/02/01 04:17:30;;;;;;;11.37;3.57;;;5.80;99.90;;;;;;5028349;28;20715;-62
2023/02/01 04:19:57;;;;;;;15.90;3.30;;;5.80;99.90;;;;;;5028423;28;20698;-62
2023/02/01 04:22:24;;;;;;;14.53;2.60;;;5.80;99.90;;;;;;5030280;28;20723;-60
2023/02/01 04:24:50;;;;;;;17.87;3.13;;;5.80;99.90;;;;;;5032534;28;20206;-61
2023/02/01 04:27:17;;;;;;;10.47;2.87;;;5.80;99.90;;;;;;5027605;28;20263;-60
2023/02/01 04:29:45;;;;;;;12.53;2.37;;;5.90;99.90;;;;;;5026048;28;20204;-60
2023/02/01 04:32:11;;;;;;;13.40;2.60;;;5.90;99.90;;;;;;5027161;28;20312;-61
2023/02/01 04:34:38;;;;;;;16.20;2.77;;;6.00;99.90;;;;;;5026438;28;20201;-60
2023/02/01 04:37:05;;;;;;;17.50;3.10;;;6.00;99.90;;;;;;5026646;28;20224;-61
2023/02/01 04:39:32;;;;;;;12.20;2.30;;;6.00;99.90;;;;;;5022236;28;20211;-62
2023/02/01 04:41:59;;;;;;;14.83;3.27;;;6.00;99.90;;;;;;5030572;28;20311;-60
2023/02/01 04:44:26;;;;;;;9.77;2.70;;;6.10;99.90;;;;;;5031190;28;20286;-61
2023/02/01 04:46:52;;;;;;;15.33;2.87;;;6.10;99.90;;;;;;5028366;28;20291;-60
2023/02/01 04:49:21;;;;;;;15.43;3.07;;;6.10;99.90;;;;;;5034095;28;20197;-60
2023/02/01 04:51:48;;;;;;;18.23;3.10;;;6.10;99.90;;;;;;5036222;28;20209;-60
2023/02/01 04:54:15;;;;;;;15.43;2.13;;;6.10;99.90;;;;;;5034923;28;20261;-60
2023/02/01 04:56:41;;;;;;;17.97;3.13;;;6.20;99.90;;;;;;5033670;28;20207;-61
2023/02/01 04:59:11;;;;;;;12.63;4.30;;;6.20;99.90;;;;;;5033301;28;20533;-60
2023/02/01 05:01:38;;;;;;;14.67;2.50;;;6.20;99.90;;;;;;5034773;28;20212;-59
2023/02/01 05:04:05;;;;;;;13.13;2.40;;;6.10;99.90;;;;;;5038179;28;20236;-59
2023/02/01 05:06:31;;;;;;;13.13;2.57;;;6.10;99.90;;;;;;5039261;28;20499;-60
2023/02/01 05:08:58;;;;;;;18.33;3.00;;;6.10;99.90;;;;;;5038668;28;20292;-59
2023/02/01 05:14:10;;;;;;;9.80;2.20;;;6.20;99.90;;;;;;5038817;28;20305;-60
2023/02/01 05:16:37;;;;;;;10.77;2.23;;;6.20;99.90;;;;;;5038057;28;20597;-60
2023/02/01 05:19:04;;;;;;;16.77;2.97;;;6.30;99.90;;;;;;5038980;28;20614;-59
2023/02/01 05:21:31;;;;;;;13.57;2.37;;;6.20;99.90;;;;;;5037136;28;20225;-59
2023/02/01 05:24:09;;;;;;;15.30;2.50;;;6.30;99.90;;;;;;5037954;28;20206;-60
2023/02/01 05:26:37;;;;;;;14.53;2.63;;;6.30;99.90;;;;;;5036766;28;20291;-60
2023/02/01 05:29:05;;;;;;;12.30;2.20;;;6.30;99.90;;;;;;5038485;28;20293;-60
2023/02/01 05:31:32;;;;;;;12.47;2.77;;;6.30;99.90;;;;;;5036519;28;20247;-59
2023/02/01 05:33:59;;;;;;;13.07;2.63;;;6.30;99.90;;;;;;5039061;28;20283;-60
2023/02/01 05:36:26;;;;;;;12.43;2.67;;;6.40;99.90;;;;;;5035548;28;20756;-60
2023/02/01 05:38:53;;;;;;;9.93;2.27;;;6.30;99.90;;;;;;5037180;28;20231;-60
2023/02/01 05:41:20;;;;;;;15.17;2.53;;;6.40;99.90;;;;;;5037319;28;20315;-59
2023/02/01 05:43:47;;;;;;;11.83;3.17;;;6.40;99.90;;;;;;5038115;28;20647;-62
2023/02/01 05:46:14;;;;;;;12.63;3.10;;;6.40;99.90;;;;;;5036008;28;20211;-64
2023/02/01 05:48:41;;;;;;;16.53;2.50;;;6.40;99.90;;;;;;5038111;28;20208;-62
2023/02/01 05:51:09;;;;;;;20.07;2.57;;;6.40;99.90;;;;;;5036529;28;20294;-60
2023/02/01 05:53:36;;;;;;;12.83;2.57;;;6.50;99.90;;;;;;5038564;28;20204;-61
2023/02/01 05:56:04;;;;;;;18.33;2.50;;;6.50;99.90;;;;;;5035185;28;20862;-61
2023/02/01 05:58:30;;;;;;;15.67;3.30;;;6.50;99.90;;;;;;5037800;28;20299;-60
2023/02/01 06:01:01;;;;;;;12.37;2.40;;;6.50;99.90;;;;;;5035703;28;20288;-60
2023/02/01 06:03:28;;;;;;;13.67;2.23;;;6.50;99.90;;;;;;5035085;28;20246;-60
2023/02/01 06:05:55;;;;;;;10.97;2.20;;;6.60;99.90;;;;;;5033460;28;20235;-62
2023/02/01 06:08:24;;;;;;;11.87;2.80;;;6.60;99.90;;;;;;5034385;28;20194;-61
2023/02/01 06:10:58;;;;;;;12.20;3.70;;;6.60;99.90;;;;;;5029592;28;20224;-64
2023/02/01 06:13:25;;;;;;;12.23;2.80;;;6.60;99.90;;;;;;5027041;28;20200;-64
2023/02/01 06:15:52;;;;;;;11.47;2.07;;;6.70;99.90;;;;;;5031276;28;20200;-61
2023/02/01 06:18:19;;;;;;;13.33;3.17;;;6.70;99.90;;;;;;5033509;28;20760;-60
2023/02/01 06:20:55;;;;;;;9.23;2.40;;;6.70;99.90;;;;;;5031003;28;20197;-60
2023/02/01 06:23:23;;;;;;;9.47;2.20;;;6.70;99.90;;;;;;5037606;28;20232;-60
2023/02/01 06:25:51;;;;;;;12.97;2.80;;;6.70;99.90;;;;;;5036187;28;20193;-60
2023/02/01 06:28:18;;;;;;;10.30;3.00;;;6.70;99.90;;;;;;5036935;28;20549;-60
2023/02/01 06:30:45;;;;;;;10.10;2.37;;;6.70;99.90;;;;;;5035635;28;20247;-60
2023/02/01 06:33:14;;;;;;;19.33;3.10;;;6.80;99.90;;;;;;5037621;28;20666;-60
2023/02/01 06:35:44;;;;;;;11.67;2.60;;;6.80;99.90;;;;;;5038234;28;20266;-61
2023/02/01 06:38:11;;;;;;;20.03;2.90;;;6.80;99.90;;;;;;5034886;28;20291;-62
2023/02/01 06:40:39;;;;;;;14.70;3.27;;;6.80;99.90;;;;;;5037175;28;20268;-61
2023/02/01 06:43:05;;;;;;;13.13;2.50;;;6.80;99.90;;;;;;5036134;28;20355;-60
2023/02/01 06:45:32;;;;;;;13.93;3.47;;;6.80;99.90;;;;;;5035687;28;20204;-61
2023/02/01 06:48:00;;;;;;;10.83;2.53;;;6.70;99.90;;;;;;5019381;28;20609;-60
2023/02/01 06:50:27;;;;;;;14.00;4.60;;;6.70;99.90;;;;;;5036147;28;20661;-61
2023/02/01 06:52:55;;;;;;;14.73;2.87;;;6.70;99.90;;;;;;5033133;28;20203;-61
2023/02/01 06:55:22;;;;;;;13.40;2.67;;;6.80;99.90;;;;;;5034431;28;20684;-60
2023/02/01 06:57:53;;;;;;;15.57;2.67;;;6.70;99.90;;;;;;5035406;28;20560;-60
2023/02/01 07:00:21;;;;;;;10.40;3.00;;;6.70;99.90;;;;;;5026804;28;20295;-61
2023/02/01 07:02:48;;;;;;;12.53;2.83;;;6.60;99.90;;;;;;5030651;28;20240;-61
2023/02/01 07:05:15;;;;;;;14.60;2.80;;;6.50;99.90;;;;;;5043310;28;20200;-60
2023/02/01 07:07:42;;;;;;;18.50;2.63;;;6.60;99.90;;;;;;5033071;28;20275;-62
2023/02/01 07:10:10;;;;;;;13.00;2.37;;;6.60;99.90;;;;;;5031443;28;20676;-60
2023/02/01 07:12:37;;;;;;;11.37;1.93;;;6.50;99.90;;;;;;5031073;28;20201;-60
2023/02/01 07:15:04;;;;;;;9.03;2.50;;;6.50;99.90;;;;;;5033959;28;20202;-62
2023/02/01 07:17:31;;;;;;;11.33;2.93;;;6.50;99.90;;;;;;5028080;28;20201;-60
2023/02/01 07:20:01;;;;;;;11.53;2.73;;;6.50;99.90;;;;;;5030091;28;20211;-62
2023/02/01 07:22:28;;;;;;;16.57;3.47;;;6.50;99.90;;;;;;5016630;28;20283;-61
2023/02/01 07:24:55;;;;;;;15.03;3.33;;;6.50;99.90;;;;;;4664989;28;9999610;-61
2023/02/01 07:27:24;;;;;;;14.07;2.67;;;6.50;99.90;;;;;;5019818;28;20297;-60
2023/02/01 07:29:52;;;;;;;8.30;1.97;;;6.50;99.90;;;;;;5017753;28;20284;-61
2023/02/01 07:32:18;;;;;;;10.23;2.80;;;6.50;99.90;;;;;;5024034;28;20290;-61
2023/02/01 07:34:45;;;;;;;13.83;3.63;;;6.50;99.90;;;;;;5028395;28;20250;-60
2023/02/01 07:37:12;;;;;;;18.00;3.00;;;6.50;99.90;;;;;;5028907;28;20224;-60
2023/02/01 07:39:39;;;;;;;8.20;2.10;;;6.50;99.90;;;;;;5018403;28;20287;-61
2023/02/01 07:42:06;;;;;;;11.23;2.70;;;6.60;99.90;;;;;;5024485;28;20232;-60
2023/02/01 07:44:33;;;;;;;11.00;2.77;;;6.50;99.90;;;;;;5026278;28;20256;-61
2023/02/01 07:47:00;;;;;;;11.90;2.87;;;6.50;99.90;;;;;;5023089;28;20214;-61
2023/02/01 07:49:26;;;;;;;17.63;3.97;;;6.50;99.90;;;;;;5022908;28;20243;-61
2023/02/01 07:51:53;;;;;;;9.57;2.83;;;6.50;99.90;;;;;;5019158;28;20201;-61
2023/02/01 07:54:20;;;;;;;12.03;2.93;;;6.50;99.90;;;;;;5023982;28;20205;-61
2023/02/01 07:56:47;;;;;;;11.23;3.20;;;6.50;99.90;;;;;;5024509;28;20589;-61
2023/02/01 07:59:14;;;;;;;15.13;2.63;;;6.50;99.90;;;;;;5022293;28;20200;-59
2023/02/01 08:01:42;;;;;;;13.00;2.47;;;6.50;99.90;;;;;;5023739;28;20190;-60
2023/02/01 08:04:12;;;;;;;15.20;3.13;;;6.60;99.90;;;;;;5022033;28;20241;-61
2023/02/01 08:06:39;;;;;;;15.40;2.57;;;6.50;99.90;;;;;;5018623;28;20204;-61
2023/02/01 08:09:08;;;;;;;21.20;3.20;;;6.60;99.90;;;;;;5018719;28;20236;-62
2023/02/01 08:11:37;;;;;;;22.33;3.40;;;6.70;99.90;;;;;;5027943;28;20205;-60
2023/02/01 08:14:05;;;;;;;12.17;3.73;;;6.70;99.90;;;;;;5025068;28;20212;-62
2023/02/01 08:16:34;;;;;;;11.10;2.67;;;6.70;99.90;;;;;;5015715;28;20207;-61
2023/02/01 08:19:01;;;;;;;9.87;2.50;;;6.70;99.90;;;;;;5021197;28;20205;-61
2023/02/01 08:21:36;;;;;;;14.80;2.70;;;6.70;99.90;;;;;;5027471;28;20222;-61
2023/02/01 08:24:05;;;;;;;14.87;2.93;;;6.70;99.90;;;;;;5022577;28;20520;-63
2023/02/01 08:26:32;;;;;;;18.27;3.63;;;6.70;99.90;;;;;;5027911;28;20258;-62
2023/02/01 08:29:01;;;;;;;11.10;3.13;;;6.70;99.90;;;;;;5022248;28;20197;-62
2023/02/01 08:31:30;;;;;;;16.13;3.03;;;6.70;99.90;;;;;;5021977;28;20202;-61
2023/02/01 08:33:59;;;;;;;8.00;2.63;;;6.70;99.90;;;;;;5016932;28;20213;-61
2023/02/01 08:36:28;;;;;;;10.73;3.23;;;6.70;99.90;;;;;;5009818;28;20371;-61
2023/02/01 08:38:55;;;;;;;11.93;2.70;;;6.70;99.90;;;;;;5015059;28;20286;-61
2023/02/01 08:41:25;;;;;;;11.63;3.33;;;6.70;99.90;;;;;;5022943;28;20219;-62
2023/02/01 08:43:53;;;;;;;10.10;2.60;;;6.80;99.90;;;;;;5026439;28;20747;-62
2023/02/01 08:46:21;;;;;;;13.60;2.77;;;6.90;99.90;;;;;;5025961;28;20255;-61
2023/02/01 08:48:48;;;;;;;14.20;4.00;;;7.00;99.90;;;;;;5030195;28;20648;-62
2023/02/01 08:51:18;;;;;;;18.23;3.73;;;7.10;99.90;;;;;;5032679;28;20196;-62
2023/02/01 08:53:45;;;;;;;10.13;2.60;;;7.10;99.90;;;;;;5034763;28;20289;-62
2023/02/01 08:56:14;;;;;;;10.27;1.97;;;7.20;99.90;;;;;;5030209;28;20211;-62
2023/02/01 08:58:41;;;;;;;19.40;2.60;;;7.20;99.90;;;;;;5018191;28;20227;-62
2023/02/01 09:01:12;;;;;;;12.90;2.37;;;7.30;99.90;;;;;;5028783;28;20215;-62
2023/02/01 09:03:39;;;;;;;11.03;3.03;;;7.30;99.90;;;;;;5026578;28;20699;-61
2023/02/01 09:06:11;;;;;;;12.10;2.90;;;7.20;99.90;;;;;;5021312;28;20204;-62
2023/02/01 09:08:39;;;;;;;13.50;3.00;;;7.30;99.90;;;;;;5012779;28;20972;-62
2023/02/01 09:11:10;;;;;;;9.53;2.40;;;7.40;99.90;;;;;;5016556;28;21289;-63
2023/02/01 09:13:36;;;;;;;16.87;2.80;;;7.40;99.90;;;;;;5024889;28;20285;-61
2023/02/01 09:16:04;;;;;;;16.58;3.65;;;7.50;99.90;;;;;;5025987;28;20464;-60
2023/02/01 09:18:31;;;;;;;13.10;2.83;;;7.60;99.90;;;;;;5028724;28;20209;-60
2023/02/01 09:20:57;;;;;;;11.53;2.37;;;7.70;99.90;;;;;;5027025;28;20240;-61
2023/02/01 09:23:24;;;;;;;11.47;2.73;;;7.70;99.90;;;;;;5028396;28;20312;-61
2023/02/01 09:25:52;;;;;;;11.00;2.47;;;7.90;99.90;;;;;;5029937;28;20197;-61
2023/02/01 09:28:19;;;;;;;12.97;2.73;;;8.00;99.90;;;;;;5023873;28;20240;-60
2023/02/01 09:30:46;;;;;;;11.93;2.33;;;8.20;99.90;;;;;;5025603;28;20791;-60
2023/02/01 09:33:13;;;;;;;9.50;2.40;;;8.20;99.90;;;;;;5033484;28;20201;-60
2023/02/01 09:35:40;;;;;;;10.03;2.73;;;8.20;99.90;;;;;;5027393;28;20636;-60
2023/02/01 09:38:07;;;;;;;17.03;2.53;;;8.00;99.90;;;;;;5031144;28;20194;-62
2023/02/01 09:40:35;;;;;;;9.00;2.67;;;8.10;99.90;;;;;;5028258;28;20543;-62
2023/02/01 09:43:08;;;;;;;10.47;2.20;;;8.30;99.90;;;;;;5027468;28;20762;-60
2023/02/01 09:45:37;;;;;;;6.57;2.00;;;8.20;99.90;;;;;;5028936;28;20210;-60
2023/02/01 09:48:16;;;;;;;11.03;2.27;;;8.10;99.90;;;;;;5024383;28;20715;-64
2023/02/01 09:50:52;;;;;;;14.37;3.00;;;8.10;99.90;;;;;;5025472;28;20263;-60
2023/02/01 09:53:28;;;;;;;17.70;2.37;;;8.10;99.90;;;;;;5032432;28;20236;-61
2023/02/01 09:56:20;;;;;;;13.53;2.30;;;8.50;99.90;;;;;;5020175;28;20198;-60
2023/02/01 09:59:01;;;;;;;8.30;2.13;;;8.90;99.90;;;;;;5026781;28;20229;-61
2023/02/01 10:01:29;;;;;;;19.60;3.23;;;8.80;99.90;;;;;;5029697;28;20253;-61
2023/02/01 10:04:04;;;;;;;12.13;2.27;;;8.80;99.90;;;;;;5032162;28;20784;-60
2023/02/01 10:06:49;;;;;;;8.07;2.10;;;8.50;99.90;;;;;;5026637;28;20530;-60
2023/02/01 10:09:34;;;;;;;10.20;2.53;;;8.60;99.90;;;;;;5022815;28;20208;-64
2023/02/01 10:12:23;;;;;;;12.47;2.60;;;8.50;99.90;;;;;;5019188;28;20209;-61
2023/02/01 10:15:15;;;;;;;10.03;2.20;;;8.20;99.90;;;;;;5019314;28;20206;-61
2023/02/01 10:17:53;;;;;;;12.37;2.60;;;8.20;99.90;;;;;;5024594;28;20209;-61
2023/02/01 10:20:39;;;;;;;16.37;2.90;;;8.20;99.90;;;;;;5029962;28;20657;-62
2023/02/01 10:23:34;;;;;;;14.07;2.40;;;8.10;99.90;;;;;;5025018;28;20264;-62
2023/02/01 10:26:01;;;;;;;12.97;2.60;;;8.20;99.90;;;;;;5029696;28;20710;-61
2023/02/01 10:28:27;;;;;;;10.17;3.07;;;8.00;99.90;;;;;;5028346;28;20202;-61
2023/02/01 10:30:58;;;;;;;10.23;2.33;;;8.10;99.90;;;;;;5031081;28;20660;-62
2023/02/01 10:33:41;;;;;;;10.57;2.50;;;8.10;99.90;;;;;;5029726;28;20208;-61
2023/02/01 10:36:07;;;;;;;15.83;2.83;;;8.00;99.90;;;;;;5026388;28;20232;-62
2023/02/01 10:38:34;;;;;;;16.57;2.90;;;7.90;99.90;;;;;;5024103;28;20542;-62
2023/02/01 10:41:10;;;;;;;12.10;2.27;;;8.10;99.90;;;;;;5027135;28;20577;-63
2023/02/01 10:43:39;;;;;;;8.60;2.30;;;8.00;99.90;;;;;;5027600;28;20219;-62
2023/02/01 10:46:07;;;;;;;7.90;2.20;;;7.90;99.90;;;;;;5028349;28;20850;-64
2023/02/01 10:48:35;;;;;;;10.23;2.40;;;7.90;99.90;;;;;;5028593;28;20240;-61
2023/02/01 10:51:16;;;;;;;10.07;1.90;;;7.80;99.90;;;;;;5027592;28;20212;-61
2023/02/01 10:54:01;;;;;;;10.10;2.37;;;7.90;99.90;;;;;;5025420;28;20560;-61
2023/02/01 10:56:29;;;;;;;18.40;2.27;;;8.00;99.90;;;;;;5028692;28;20730;-61
2023/02/01 10:59:14;;;;;;;9.90;3.17;;;7.90;99.90;;;;;;5025417;28;20213;-62
2023/02/01 11:01:44;;;;;;;15.67;2.10;;;7.90;99.90;;;;;;5032754;28;20664;-62
2023/02/01 11:04:14;;;;;;;9.13;2.43;;;8.00;99.90;;;;;;5032028;28;20230;-61
2023/02/01 11:06:43;;;;;;;12.43;2.27;;;7.90;99.90;;;;;;5030865;28;20296;-61
2023/02/01 11:09:20;;;;;;;9.13;2.40;;;8.00;99.90;;;;;;5026325;28;20535;-62
2023/02/01 11:11:47;;;;;;;8.90;2.40;;;7.90;99.90;;;;;;5031087;28;20293;-61
2023/02/01 11:14:17;;;;;;;17.57;3.53;;;7.90;99.90;;;;;;5012590;28;20296;-62
2023/02/01 11:16:49;;;;;;;16.17;2.60;;;7.90;99.90;;;;;;5028151;28;20203;-64
2023/02/01 11:19:17;;;;;;;14.80;2.37;;;7.90;99.90;;;;;;5025905;28;20311;-65
2023/02/01 11:21:48;;;;;;;9.27;1.97;;;8.00;99.90;;;;;;5029845;28;20275;-65
2023/02/01 11:24:32;;;;;;;12.37;2.47;;;8.00;99.90;;;;;;5029201;28;20573;-64
2023/02/01 11:27:03;;;;;;;7.80;1.90;;;8.00;99.90;;;;;;5024930;28;20270;-61
2023/02/01 11:29:39;;;;;;;10.90;2.23;;;7.90;99.90;;;;;;5022703;28;20283;-62
2023/02/01 11:32:09;;;;;;;19.93;3.13;;;7.80;99.90;;;;;;5014121;28;20300;-60
2023/02/01 11:34:59;;;;;;;10.43;2.40;;;7.90;99.90;;;;;;5031849;28;20522;-61
2023/02/01 11:37:41;;;;;;;10.43;2.17;;;7.90;99.90;;;;;;5026367;28;20302;-61
2023/02/01 11:40:17;;;;;;;10.97;2.37;;;7.90;99.90;;;;;;5024592;28;20200;-62
2023/02/01 11:43:20;;;;;;;11.07;2.13;;;8.00;99.90;;;;;;5030262;28;20205;-60
2023/02/01 11:46:17;;;;;;;13.80;2.37;;;8.10;99.90;;;;;;5028605;28;20201;-60
2023/02/01 11:48:43;;;;;;;8.70;1.90;;;8.20;99.90;;;;;;5023443;28;20212;-60
2023/02/01 11:51:23;;;;;;;6.03;1.77;;;8.20;99.90;;;;;;5026166;28;20681;-63
2023/02/01 11:54:13;;;;;;;15.17;2.60;;;8.10;99.90;;;;;;5022505;28;20670;-63
2023/02/01 11:56:48;;;;;;;13.27;2.57;;;8.20;99.90;;;;;;5028532;28;20205;-63
2023/02/01 11:59:42;;;;;;;8.03;2.10;;;8.10;99.90;;;;;;5025943;28;20197;-66
2023/02/01 12:02:41;;;;;;;10.90;1.90;;;8.20;99.90;;;;;;5026855;28;20671;-66
2023/02/01 12:05:40;;;;;;;16.23;2.60;;;8.20;99.90;;;;;;5026288;28;20209;-65
2023/02/01 12:08:28;;;;;;;9.77;2.10;;;8.10;99.90;;;;;;5024296;28;20730;-64
2023/02/01 12:11:22;;;;;;;10.80;3.50;;;8.10;99.90;;;;;;5021995;28;20210;-64
2023/02/01 12:14:01;;;;;;;9.90;2.57;;;8.20;99.90;;;;;;5031784;28;20209;-64
2023/02/01 12:16:39;;;;;;;5.57;1.53;;;8.20;99.90;;;;;;5024949;28;20205;-63
2023/02/01 12:19:32;;;;;;;11.53;2.10;;;8.20;99.90;;;;;;5023749;28;20212;-62
2023/02/01 12:22:29;;;;;;;13.83;2.10;;;8.20;99.90;;;;;;5029417;28;20294;-63
2023/02/01 12:25:06;;;;;;;8.00;1.70;;;8.10;99.90;;;;;;5031617;28;20284;-63
2023/02/01 12:27:36;;;;;;;11.00;2.00;;;8.10;99.90;;;;;;5026269;28;21031;-63
2023/02/01 12:30:33;;;;;;;9.83;2.07;;;8.10;99.90;;;;;;5033999;28;20200;-61
2023/02/01 12:33:23;;;;;;;15.43;2.50;;;8.10;99.90;;;;;;5035148;28;20202;-60
2023/02/01 12:36:07;;;;;;;11.00;2.27;;;8.20;99.90;;;;;;5017644;28;20237;-60
2023/02/01 12:39:10;;;;;;;10.87;2.17;;;8.20;99.90;;;;;;5025539;28;20287;-60
2023/02/01 12:42:08;;;;;;;14.40;3.00;;;8.20;99.90;;;;;;5027984;28;20571;-60
2023/02/01 12:44:44;;;;;;;8.07;2.43;;;8.20;99.90;;;;;;5030714;28;20239;-61
2023/02/01 12:48:06;;;;;;;8.00;1.97;;;8.20;99.90;;;;;;5030707;28;20215;-60
2023/02/01 12:50:51;;;;;;;13.33;2.67;;;8.20;99.90;;;;;;5028010;28;20479;-60
2023/02/01 12:54:00;;;;;;;16.43;2.77;;;8.20;99.90;;;;;;5031001;28;20240;-60
2023/02/01 12:56:40;;;;;;;15.57;2.77;;;8.30;99.90;;;;;;5012692;28;20730;-60
2023/02/01 12:59:28;;;;;;;13.57;2.40;;;8.30;99.90;;;;;;5033632;28;20231;-60
2023/02/01 13:02:03;;;;;;;10.13;1.93;;;8.30;99.90;;;;;;5013190;28;20302;-61
2023/02/01 13:04:35;;;;;;;9.30;1.80;;;8.30;99.90;;;;;;5033123;28;20335;-60
2023/02/01 13:07:17;;;;;;;8.83;2.57;;;8.40;99.90;;;;;;5035111;28;20234;-60
2023/02/01 13:09:57;;;;;;;10.13;2.80;;;8.50;99.90;;;;;;5033461;28;20195;-59
2023/02/01 13:13:01;;;;;;;17.13;2.67;;;8.60;99.90;;;;;;5031479;28;20223;-63
2023/02/01 13:15:33;;;;;;;12.93;2.20;;;8.70;99.90;;;;;;5032871;28;20219;-62
2023/02/01 13:18:04;;;;;;;14.40;2.77;;;8.70;99.90;;;;;;5030999;28;20293;-63
2023/02/01 13:20:37;;;;;;;10.60;1.97;;;8.70;99.90;;;;;;5028941;28;20638;-63
2023/02/01 13:23:10;;;;;;;13.73;3.13;;;8.70;99.90;;;;;;5030945;28;20659;-67
2023/02/01 13:25:51;;;;;;;10.80;2.53;;;8.60;99.90;;;;;;5026766;28;20288;-64
2023/02/01 13:28:27;;;;;;;12.87;2.30;;;8.80;99.90;;;;;;5031248;28;21250;-61
2023/02/01 13:31:13;;;;;;;10.33;2.13;;;9.00;99.90;;;;;;5026393;28;20203;-61
2023/02/01 13:33:50;;;;;;;14.10;2.00;;;9.10;99.90;;;;;;5030015;28;20654;-60
2023/02/01 13:37:07;;;;;;;11.83;2.33;;;9.00;99.90;;;;;;5024905;28;20226;-61
2023/02/01 13:39:43;;;;;;;12.73;2.60;;;9.00;99.90;;;;;;4980028;28;20298;-64
2023/02/01 13:42:20;;;;;;;13.63;3.03;;;8.90;99.90;;;;;;5027909;28;21190;-60